Time;durP1;ratioP1;P1;durP2;ratioP2;P2;SDS_P1;SDS_P2;PMS_P1;PMS_P2;Temp;Humidity;BMP_temperature;BMP_pressure;BME280_temperature;BME280_humidity;BME280_pressure;Samples;Min_cycle;Max_cycle;Signal;HPM_P1;HPM_P2
2023/07/24 00:02:06;;;;;;;16.45;10.15;;;26.80;96.70;;;;;;5071886;28;20033;-85
2023/07/24 00:04:34;;;;;;;15.20;9.52;;;26.80;96.70;;;;;;5085195;28;20036;-85
2023/07/24 00:07:02;;;;;;;14.13;9.90;;;26.70;96.70;;;;;;5074913;28;20051;-85
2023/07/24 00:09:30;;;;;;;13.32;9.18;;;26.70;96.70;;;;;;5072711;28;20135;-83
2023/07/24 00:11:59;;;;;;;11.77;8.23;;;26.80;96.70;;;;;;5068541;28;20048;-83
2023/07/24 00:14:28;;;;;;;12.95;9.23;;;26.60;96.70;;;;;;5073521;28;20121;-83
2023/07/24 00:16:55;;;;;;;15.55;9.48;;;26.70;96.70;;;;;;5071508;28;20412;-84
2023/07/24 00:19:23;;;;;;;12.30;9.20;;;26.70;96.70;;;;;;5074825;28;20524;-83
2023/07/24 00:21:51;;;;;;;12.55;8.82;;;26.50;96.70;;;;;;5075020;28;20044;-83
2023/07/24 00:24:19;;;;;;;12.90;9.48;;;26.60;96.70;;;;;;5069017;28;20398;-82
2023/07/24 00:26:48;;;;;;;11.52;8.35;;;26.60;96.70;;;;;;5069385;28;20040;-84
2023/07/24 00:29:19;;;;;;;14.55;9.38;;;26.60;96.70;;;;;;5048866;28;20436;-83
2023/07/24 00:31:47;;;;;;;12.52;8.82;;;26.70;96.70;;;;;;5073490;28;20082;-84
2023/07/24 00:34:15;;;;;;;13.20;8.82;;;26.70;96.70;;;;;;5061806;28;20573;-84
2023/07/24 00:36:43;;;;;;;14.20;9.13;;;26.70;96.70;;;;;;5067138;28;20083;-84
2023/07/24 00:39:14;;;;;;;13.00;8.65;;;26.60;96.70;;;;;;5084834;28;20043;-83
2023/07/24 00:41:42;;;;;;;11.55;8.68;;;26.40;96.70;;;;;;5066492;28;20691;-84
2023/07/24 00:44:10;;;;;;;16.65;9.07;;;26.40;96.70;;;;;;5055383;28;20137;-83
2023/07/24 00:46:39;;;;;;;11.35;8.75;;;26.40;96.70;;;;;;5068480;28;20053;-83
2023/07/24 00:49:08;;;;;;;13.82;8.45;;;26.30;96.70;;;;;;5066464;28;20491;-82
2023/07/24 00:51:36;;;;;;;13.85;9.10;;;26.30;96.70;;;;;;5048910;28;20055;-84
2023/07/24 00:54:06;;;;;;;13.05;9.25;;;26.20;96.70;;;;;;5065239;28;20055;-84
2023/07/24 00:56:34;;;;;;;15.15;9.13;;;26.30;96.70;;;;;;5049129;28;20612;-83
2023/07/24 00:59:04;;;;;;;13.02;9.10;;;26.30;96.70;;;;;;5058305;28;20045;-84
2023/07/24 01:01:32;;;;;;;14.85;9.05;;;26.30;96.70;;;;;;5066403;28;20162;-83
2023/07/24 01:04:03;;;;;;;13.02;8.63;;;26.30;96.70;;;;;;5061263;28;20109;-83
2023/07/24 01:06:32;;;;;;;14.23;9.27;;;26.10;96.70;;;;;;5065313;28;20102;-83
2023/07/24 01:09:03;;;;;;;16.50;9.00;;;26.20;96.70;;;;;;5064875;28;20053;-83
2023/07/24 01:11:37;;;;;;;11.50;8.57;;;26.20;96.70;;;;;;5064807;28;20059;-83
2023/07/24 01:14:13;;;;;;;13.05;8.40;;;26.20;96.70;;;;;;5064578;28;20044;-83
2023/07/24 01:16:43;;;;;;;12.75;8.95;;;26.20;96.70;;;;;;5055062;28;20056;-83
2023/07/24 01:19:20;;;;;;;12.57;8.93;;;26.20;96.70;;;;;;5065748;28;20690;-83
2023/07/24 01:22:01;;;;;;;11.55;8.48;;;26.10;96.70;;;;;;5066641;28;20060;-83
2023/07/24 01:24:36;;;;;;;13.80;9.15;;;26.10;96.70;;;;;;5057816;28;20155;-84
2023/07/24 01:27:07;;;;;;;10.97;8.13;;;25.90;96.70;;;;;;5065478;28;20399;-84
2023/07/24 01:29:35;;;;;;;12.63;8.73;;;25.80;96.70;;;;;;5068245;28;20290;-83
2023/07/24 01:32:04;;;;;;;13.02;8.98;;;25.80;96.70;;;;;;5070979;28;20067;-84
2023/07/24 01:34:33;;;;;;;14.05;8.55;;;25.80;96.70;;;;;;5069619;28;20055;-84
2023/07/24 01:37:01;;;;;;;12.43;8.32;;;25.50;96.70;;;;;;5069342;28;20056;-83
2023/07/24 01:39:30;;;;;;;13.55;8.50;;;25.60;96.70;;;;;;5060439;28;20044;-83
2023/07/24 01:41:58;;;;;;;13.68;9.15;;;25.60;96.70;;;;;;5068628;28;20045;-84
2023/07/24 01:44:28;;;;;;;12.60;8.50;;;25.50;96.70;;;;;;5070270;28;20460;-84
2023/07/24 01:46:56;;;;;;;11.13;8.57;;;25.50;96.70;;;;;;5069962;28;20052;-83
2023/07/24 01:49:24;;;;;;;11.77;7.95;;;25.50;96.70;;;;;;5068838;28;20079;-83
2023/07/24 01:51:52;;;;;;;12.75;9.00;;;25.30;96.70;;;;;;5068624;28;20051;-83
2023/07/24 01:54:21;;;;;;;13.98;9.05;;;25.30;96.70;;;;;;5068255;28;20484;-84
2023/07/24 01:56:49;;;;;;;13.65;9.00;;;25.40;96.70;;;;;;5069633;28;20118;-83
2023/07/24 01:59:17;;;;;;;14.65;9.30;;;25.40;96.70;;;;;;5068089;28;20048;-84
2023/07/24 02:01:46;;;;;;;13.60;9.05;;;25.30;96.70;;;;;;5068980;28;20158;-84
2023/07/24 02:04:15;;;;;;;13.32;9.68;;;25.30;96.70;;;;;;5052589;28;20425;-84
2023/07/24 02:06:43;;;;;;;12.80;9.07;;;25.30;96.70;;;;;;5068526;28;20502;-83
2023/07/24 02:09:11;;;;;;;15.60;9.85;;;25.20;96.70;;;;;;5067913;28;20049;-84
2023/07/24 02:11:39;;;;;;;13.38;9.55;;;25.10;96.70;;;;;;5058192;28;20048;-83
2023/07/24 02:14:08;;;;;;;15.98;9.77;;;25.00;96.70;;;;;;5060076;28;20053;-83
2023/07/24 02:16:36;;;;;;;12.27;9.43;;;25.10;96.70;;;;;;5061700;28;20036;-84
2023/07/24 02:19:06;;;;;;;15.13;9.75;;;25.20;96.70;;;;;;5068289;28;20044;-84
2023/07/24 02:21:34;;;;;;;15.02;9.20;;;25.30;96.70;;;;;;5051230;28;20044;-83
2023/07/24 02:24:03;;;;;;;12.13;8.70;;;25.30;96.70;;;;;;5068638;28;20507;-83
2023/07/24 02:26:31;;;;;;;15.13;9.27;;;25.40;96.70;;;;;;5069139;28;20072;-87
2023/07/24 02:29:01;;;;;;;15.65;9.77;;;25.30;96.70;;;;;;5060331;28;20498;-87
2023/07/24 02:31:29;;;;;;;14.45;9.68;;;25.30;96.70;;;;;;5069053;28;20554;-87
2023/07/24 02:33:58;;;;;;;17.23;9.85;;;25.30;96.70;;;;;;5052381;28;20048;-89
2023/07/24 02:36:27;;;;;;;14.05;9.00;;;25.20;96.70;;;;;;5052933;28;20086;-87
2023/07/24 02:38:56;;;;;;;13.57;9.65;;;25.30;96.70;;;;;;5068457;28;20047;-87
2023/07/24 02:41:24;;;;;;;14.73;9.45;;;25.30;96.70;;;;;;5069741;28;20075;-88
2023/07/24 02:43:52;;;;;;;13.90;9.30;;;25.20;96.70;;;;;;5068656;28;20423;-87
2023/07/24 02:46:20;;;;;;;16.60;9.38;;;25.40;96.70;;;;;;5048363;28;20056;-89
2023/07/24 02:48:48;;;;;;;12.13;9.40;;;25.30;96.70;;;;;;5064350;28;20506;-87
2023/07/24 02:51:16;;;;;;;13.10;9.07;;;25.20;96.70;;;;;;5048204;28;20051;-87
2023/07/24 02:53:46;;;;;;;12.07;9.07;;;25.10;96.70;;;;;;5056580;28;20044;-87
2023/07/24 02:56:14;;;;;;;15.30;9.57;;;25.10;96.70;;;;;;5040956;28;20041;-88
2023/07/24 02:58:42;;;;;;;14.25;10.18;;;25.00;96.70;;;;;;5065052;28;20056;-88
2023/07/24 03:01:12;;;;;;;15.30;10.23;;;24.90;96.70;;;;;;5048957;28;20045;-87
2023/07/24 03:03:40;;;;;;;12.23;9.75;;;24.70;96.70;;;;;;5048790;28;20041;-87
2023/07/24 03:06:09;;;;;;;16.70;10.43;;;24.80;96.70;;;;;;5065407;28;20520;-89
2023/07/24 03:08:37;;;;;;;15.05;9.88;;;24.70;96.70;;;;;;5064456;28;20052;-87
2023/07/24 03:11:07;;;;;;;16.80;9.75;;;24.80;96.70;;;;;;5049248;28;20091;-87
2023/07/24 03:13:36;;;;;;;15.30;9.52;;;24.80;96.70;;;;;;5048118;28;20055;-87
2023/07/24 03:16:05;;;;;;;17.52;10.07;;;25.00;96.70;;;;;;5064457;28;20091;-86
2023/07/24 03:18:33;;;;;;;14.65;9.80;;;24.90;96.70;;;;;;5063535;28;20045;-87
2023/07/24 03:21:02;;;;;;;15.05;10.10;;;24.80;96.70;;;;;;5049099;28;20304;-87
2023/07/24 03:23:31;;;;;;;14.25;9.80;;;24.60;96.70;;;;;;5047789;28;20139;-87
2023/07/24 03:25:59;;;;;;;14.98;10.02;;;24.50;96.70;;;;;;5048430;28;20068;-86
2023/07/24 03:28:28;;;;;;;16.30;9.10;;;24.50;96.70;;;;;;5064188;28;20063;-87
2023/07/24 03:30:56;;;;;;;13.98;9.50;;;24.60;96.70;;;;;;5064075;28;20065;-87
2023/07/24 03:33:25;;;;;;;14.38;10.10;;;24.60;96.70;;;;;;5056298;28;20646;-85
2023/07/24 03:35:53;;;;;;;17.05;10.45;;;24.70;96.70;;;;;;5047885;28;20128;-87
2023/07/24 03:38:21;;;;;;;12.57;9.20;;;24.70;96.70;;;;;;5063910;28;20117;-86
2023/07/24 03:40:51;;;;;;;15.65;10.32;;;24.70;96.70;;;;;;5048280;28;20362;-86
2023/07/24 03:43:19;;;;;;;15.02;9.75;;;24.70;96.70;;;;;;5062846;28;20076;-86
2023/07/24 03:45:49;;;;;;;13.48;9.70;;;24.50;96.70;;;;;;5056745;28;20052;-86
2023/07/24 03:48:17;;;;;;;13.45;9.10;;;24.20;96.70;;;;;;5068064;28;20074;-87
2023/07/24 03:50:45;;;;;;;16.20;10.15;;;24.20;96.70;;;;;;5057942;28;20070;-87
2023/07/24 03:53:13;;;;;;;16.48;9.45;;;24.10;96.70;;;;;;5087471;28;20047;-86
2023/07/24 03:55:41;;;;;;;15.82;9.48;;;24.10;96.70;;;;;;5075805;28;20043;-87
2023/07/24 03:58:09;;;;;;;13.73;9.75;;;24.20;96.70;;;;;;5082338;28;20117;-80
2023/07/24 04:00:37;;;;;;;16.05;9.18;;;24.30;96.70;;;;;;5079610;28;20040;-86
2023/07/24 04:03:07;;;;;;;12.85;8.80;;;24.40;96.70;;;;;;5087798;28;20054;-86
2023/07/24 04:05:36;;;;;;;14.57;9.50;;;24.50;96.70;;;;;;5086631;28;20051;-86
2023/07/24 04:08:04;;;;;;;14.25;9.25;;;24.60;96.70;;;;;;5087463;28;20050;-87
2023/07/24 04:10:32;;;;;;;14.45;10.23;;;24.70;96.70;;;;;;5067352;28;20484;-86
2023/07/24 04:13:00;;;;;;;13.77;9.57;;;24.60;96.70;;;;;;5065645;28;20079;-86
2023/07/24 04:15:28;;;;;;;15.98;9.65;;;24.60;96.70;;;;;;5073166;28;20044;-86
2023/07/24 04:17:56;;;;;;;16.77;9.25;;;24.60;96.70;;;;;;5060702;28;20048;-86
2023/07/24 04:20:26;;;;;;;15.85;10.27;;;24.60;96.70;;;;;;5082816;28;20130;-86
2023/07/24 04:22:54;;;;;;;17.38;10.38;;;24.60;96.70;;;;;;5088476;28;20153;-85
2023/07/24 04:25:22;;;;;;;13.05;9.30;;;24.60;96.70;;;;;;5083749;28;20139;-86
2023/07/24 04:27:50;;;;;;;14.00;9.02;;;24.60;96.70;;;;;;5079172;28;20074;-86
2023/07/24 04:30:18;;;;;;;20.58;10.90;;;24.50;96.70;;;;;;5084450;28;20110;-86
2023/07/24 04:32:47;;;;;;;14.25;10.07;;;24.50;96.70;;;;;;5100308;28;20045;-86
2023/07/24 04:35:15;;;;;;;18.50;10.32;;;24.40;96.70;;;;;;5053080;28;20139;-86
2023/07/24 04:37:44;;;;;;;15.48;10.02;;;24.40;96.70;;;;;;5066659;28;20101;-88
2023/07/24 04:40:13;;;;;;;16.90;10.63;;;24.40;96.70;;;;;;5053689;28;20046;-87
2023/07/24 04:42:41;;;;;;;12.55;9.68;;;24.30;96.70;;;;;;5078795;28;20040;-87
2023/07/24 04:45:10;;;;;;;18.40;10.88;;;24.20;96.70;;;;;;5084302;28;20889;-86
2023/07/24 04:47:38;;;;;;;18.20;9.90;;;24.30;96.70;;;;;;5081624;28;20093;-88
2023/07/24 04:50:07;;;;;;;14.20;10.13;;;24.30;96.70;;;;;;5078454;28;20040;-86
2023/07/24 04:52:35;;;;;;;12.70;9.52;;;24.30;96.70;;;;;;5073795;28;20693;-87
2023/07/24 04:55:06;;;;;;;13.10;9.77;;;24.40;96.70;;;;;;5049727;28;20093;-86
2023/07/24 04:57:34;;;;;;;14.18;9.85;;;24.40;96.70;;;;;;5087591;28;20870;-88
2023/07/24 05:00:08;;;;;;;16.00;10.57;;;24.50;96.70;;;;;;5056193;28;20143;-87
2023/07/24 05:02:37;;;;;;;14.30;9.57;;;24.40;96.70;;;;;;5076729;28;20075;-87
2023/07/24 05:05:05;;;;;;;16.90;10.73;;;24.40;96.70;;;;;;5075518;28;20049;-87
2023/07/24 05:07:33;;;;;;;14.40;10.20;;;24.50;96.70;;;;;;5071658;28;20070;-87
2023/07/24 05:10:01;;;;;;;18.92;10.80;;;24.50;96.70;;;;;;5071974;28;20044;-88
2023/07/24 05:12:31;;;;;;;16.30;10.18;;;24.50;96.70;;;;;;5065994;28;20050;-86
2023/07/24 05:14:59;;;;;;;15.45;10.10;;;24.50;96.70;;;;;;5075506;28;20060;-87
2023/07/24 05:17:27;;;;;;;19.13;10.55;;;24.70;96.70;;;;;;5070380;28;20054;-87
2023/07/24 05:19:55;;;;;;;17.10;10.38;;;24.80;96.70;;;;;;5072179;28;20045;-87
2023/07/24 05:22:24;;;;;;;17.35;11.35;;;24.90;96.70;;;;;;5091163;28;20052;-86
2023/07/24 05:24:52;;;;;;;18.20;11.30;;;25.00;96.70;;;;;;5082221;28;20051;-87
2023/07/24 05:27:20;;;;;;;18.35;11.63;;;25.00;96.70;;;;;;5070966;28;20167;-87
2023/07/24 05:29:50;;;;;;;19.27;12.30;;;25.00;96.70;;;;;;5076291;28;20044;-87
2023/07/24 05:32:18;;;;;;;17.42;11.77;;;25.00;96.70;;;;;;5068138;28;20079;-88
2023/07/24 05:34:46;;;;;;;15.63;11.00;;;25.10;96.70;;;;;;5063936;28;20067;-87
2023/07/24 05:37:14;;;;;;;16.27;10.85;;;25.20;96.70;;;;;;5063862;28;20044;-87
2023/07/24 05:39:42;;;;;;;21.33;12.70;;;25.20;96.70;;;;;;5082867;28;20032;-87
2023/07/24 05:42:10;;;;;;;21.38;12.68;;;25.20;96.70;;;;;;5077189;28;20217;-87
2023/07/24 05:44:38;;;;;;;23.60;13.35;;;25.20;96.70;;;;;;5091287;28;20140;-88
2023/07/24 05:47:08;;;;;;;19.52;11.88;;;25.30;96.70;;;;;;5062762;28;20135;-88
2023/07/24 05:49:36;;;;;;;16.98;11.48;;;25.40;96.70;;;;;;5069046;28;20063;-88
2023/07/24 05:52:07;;;;;;;20.45;11.52;;;25.60;96.70;;;;;;5066690;28;20056;-89
2023/07/24 05:54:35;;;;;;;17.73;12.32;;;25.70;96.70;;;;;;5054545;28;20303;-87
2023/07/24 05:57:03;;;;;;;18.20;11.43;;;25.90;96.70;;;;;;5087208;28;20118;-87
2023/07/24 05:59:31;;;;;;;21.10;12.43;;;26.00;96.70;;;;;;5050214;28;20076;-87
2023/07/24 06:01:59;;;;;;;19.52;11.40;;;26.20;96.70;;;;;;5050077;28;20068;-88
2023/07/24 06:04:28;;;;;;;16.13;11.10;;;26.40;96.70;;;;;;5052717;28;20033;-88
2023/07/24 06:06:57;;;;;;;14.15;10.02;;;26.50;96.70;;;;;;5060188;28;20131;-87
2023/07/24 06:09:25;;;;;;;16.13;10.65;;;26.60;96.70;;;;;;5076636;28;20044;-87
2023/07/24 06:11:53;;;;;;;16.02;11.02;;;26.60;96.70;;;;;;5086728;28;20068;-87
2023/07/24 06:14:21;;;;;;;15.63;10.15;;;26.60;96.70;;;;;;5049019;28;20501;-88
2023/07/24 06:16:49;;;;;;;14.68;10.32;;;26.60;96.70;;;;;;5067247;28;20045;-88
2023/07/24 06:19:17;;;;;;;17.40;10.90;;;26.70;96.70;;;;;;5057105;28;20068;-88
2023/07/24 06:21:47;;;;;;;16.75;10.63;;;26.80;96.70;;;;;;5066634;28;20533;-88
2023/07/24 06:24:15;;;;;;;19.15;11.77;;;26.90;96.70;;;;;;5051517;28;20131;-88
2023/07/24 06:26:43;;;;;;;16.95;11.15;;;27.10;96.70;;;;;;5051273;28;20137;-88
2023/07/24 06:29:11;;;;;;;17.77;10.95;;;27.20;96.70;;;;;;5031044;28;20120;-88
2023/07/24 06:31:39;;;;;;;16.75;11.02;;;27.30;96.70;;;;;;5051560;28;20041;-87
2023/07/24 06:34:07;;;;;;;19.63;11.43;;;27.40;96.70;;;;;;5057578;28;20494;-87
2023/07/24 06:36:35;;;;;;;16.73;11.90;;;27.40;96.70;;;;;;5053971;28;20045;-87
2023/07/24 06:39:05;;;;;;;17.45;10.77;;;27.50;96.70;;;;;;5032669;28;20040;-88
2023/07/24 06:41:33;;;;;;;16.33;10.93;;;27.50;96.70;;;;;;5065751;28;20049;-87
2023/07/24 06:44:02;;;;;;;15.55;10.90;;;27.40;96.70;;;;;;5091415;28;20789;-88
2023/07/24 06:46:30;;;;;;;15.27;11.35;;;27.30;96.70;;;;;;5060109;28;20650;-88
2023/07/24 06:48:58;;;;;;;19.38;10.68;;;27.30;96.70;;;;;;5059220;28;20056;-88
2023/07/24 06:51:26;;;;;;;16.23;10.75;;;27.30;96.70;;;;;;5070269;28;20039;-87
2023/07/24 06:53:54;;;;;;;17.45;11.02;;;27.40;96.70;;;;;;5076176;28;20147;-87
2023/07/24 06:56:24;;;;;;;14.77;10.57;;;27.40;96.70;;;;;;5066725;28;20057;-87
2023/07/24 06:58:52;;;;;;;19.15;11.02;;;27.40;96.70;;;;;;5059353;28;20045;-86
2023/07/24 07:01:20;;;;;;;20.98;11.45;;;27.40;96.70;;;;;;5071334;28;20040;-87
2023/07/24 07:03:48;;;;;;;22.63;10.40;;;27.40;96.70;;;;;;5073976;28;20325;-86
2023/07/24 07:06:16;;;;;;;26.67;11.93;;;27.20;96.70;;;;;;5076911;28;20293;-86
2023/07/24 07:08:47;;;;;;;21.40;11.88;;;27.20;96.70;;;;;;5082168;28;20043;-89
2023/07/24 07:11:16;;;;;;;19.10;10.52;;;27.30;96.70;;;;;;5052902;28;20040;-87
2023/07/24 07:13:45;;;;;;;21.48;10.65;;;27.40;96.70;;;;;;5075638;28;20105;-90
2023/07/24 07:16:13;;;;;;;15.50;10.30;;;27.50;96.70;;;;;;5062529;28;20041;-83
2023/07/24 07:18:41;;;;;;;14.85;9.68;;;27.70;96.70;;;;;;5060827;28;20044;-86
2023/07/24 07:21:09;;;;;;;13.98;9.25;;;27.90;96.70;;;;;;5054371;28;20045;-89
2023/07/24 07:23:37;;;;;;;18.50;10.50;;;28.10;96.70;;;;;;5066908;28;20445;-87
2023/07/24 07:26:05;;;;;;;16.88;9.52;;;28.30;96.70;;;;;;5058254;28;20060;-84
2023/07/24 07:28:33;;;;;;;14.63;8.25;;;28.40;96.70;;;;;;5073979;28;20036;-88
2023/07/24 07:31:03;;;;;;;13.07;7.88;;;28.50;96.70;;;;;;5079417;28;20040;-89
2023/07/24 07:33:31;;;;;;;13.98;7.75;;;28.50;96.70;;;;;;5072665;28;20044;-86
2023/07/24 07:35:59;;;;;;;10.18;7.28;;;28.50;96.70;;;;;;5077442;28;20041;-88
2023/07/24 07:38:27;;;;;;;16.23;7.30;;;28.60;96.70;;;;;;5057996;28;20049;-82
2023/07/24 07:40:55;;;;;;;10.05;7.35;;;28.70;96.70;;;;;;5058786;28;20040;-88
2023/07/24 07:43:23;;;;;;;12.60;7.72;;;28.80;96.70;;;;;;5068977;28;20048;-87
2023/07/24 07:45:51;;;;;;;12.05;7.35;;;28.80;96.70;;;;;;5075871;28;20056;-90
2023/07/24 07:48:21;;;;;;;11.07;7.00;;;28.80;96.70;;;;;;5068865;28;20099;-88
2023/07/24 07:50:51;;;;;;;11.52;6.28;;;28.80;96.70;;;;;;5077330;28;20118;-89
2023/07/24 07:53:19;;;;;;;12.82;5.95;;;28.80;96.70;;;;;;5067721;28;20044;-88
2023/07/24 07:55:54;;;;;;;12.88;6.57;;;28.90;96.70;;;;;;5059737;28;20498;-89
2023/07/24 07:58:22;;;;;;;12.27;6.28;;;29.10;96.70;;;;;;5077672;28;20060;-89
2023/07/24 08:00:51;;;;;;;19.35;7.13;;;29.10;96.70;;;;;;5051479;28;20562;-88
2023/07/24 08:03:20;;;;;;;14.50;7.35;;;29.30;96.70;;;;;;5060611;28;20129;-90
2023/07/24 08:05:48;;;;;;;12.52;6.95;;;29.30;96.70;;;;;;5058368;28;20041;-89
2023/07/24 08:08:16;;;;;;;14.77;6.63;;;29.40;96.70;;;;;;5074516;28;20567;-89
2023/07/24 08:10:45;;;;;;;14.88;6.88;;;29.50;96.70;;;;;;5068714;28;20052;-88
2023/07/24 08:13:13;;;;;;;15.85;7.88;;;29.70;96.70;;;;;;5056959;28;20043;-85
2023/07/24 08:15:41;;;;;;;11.20;6.82;;;29.80;96.70;;;;;;5053613;28;20079;-87
2023/07/24 08:18:09;;;;;;;15.30;7.97;;;30.10;96.70;;;;;;5076189;28;20454;-86
2023/07/24 08:20:40;;;;;;;9.75;6.85;;;30.30;96.70;;;;;;5059687;28;20176;-85
2023/07/24 08:23:08;;;;;;;13.68;6.70;;;30.40;96.70;;;;;;5074584;28;20044;-85
2023/07/24 08:25:36;;;;;;;10.30;7.00;;;30.40;96.70;;;;;;5067980;28;20564;-83
2023/07/24 08:28:04;;;;;;;12.55;6.88;;;30.40;96.70;;;;;;5052094;28;20132;-85
2023/07/24 08:30:34;;;;;;;15.07;6.95;;;30.40;96.70;;;;;;5076416;28;20040;-87
2023/07/24 08:33:02;;;;;;;12.60;6.85;;;30.40;96.70;;;;;;5052290;28;20116;-87
2023/07/24 08:35:31;;;;;;;12.43;5.85;;;30.50;96.70;;;;;;5072201;28;20527;-88
2023/07/24 08:38:00;;;;;;;14.73;7.10;;;30.50;96.70;;;;;;5044554;28;20052;-87
2023/07/24 08:40:28;;;;;;;13.65;6.00;;;30.60;96.70;;;;;;5074658;28;20432;-88
2023/07/24 08:42:57;;;;;;;11.40;5.63;;;30.80;96.70;;;;;;5060423;28;20047;-87
2023/07/24 08:45:26;;;;;;;13.73;7.05;;;30.90;96.70;;;;;;5042520;28;20048;-85
2023/07/24 08:47:56;;;;;;;11.00;6.97;;;30.80;96.70;;;;;;5057093;28;20073;-86
2023/07/24 08:50:26;;;;;;;12.88;6.75;;;30.80;96.70;;;;;;5051750;28;20076;-83
2023/07/24 08:52:56;;;;;;;12.25;6.82;;;30.90;96.70;;;;;;5039585;28;20073;-83
2023/07/24 08:55:26;;;;;;;15.70;7.60;;;30.90;96.70;;;;;;5063959;28;20049;-84
2023/07/24 08:57:55;;;;;;;12.00;6.53;;;31.00;96.70;;;;;;5060822;28;20059;-92
2023/07/24 09:00:24;;;;;;;12.55;6.32;;;31.10;96.70;;;;;;5066211;28;20616;-91
2023/07/24 09:02:52;;;;;;;14.48;6.93;;;31.20;96.70;;;;;;5066720;28;20601;-89
2023/07/24 09:05:21;;;;;;;13.55;8.05;;;31.20;96.70;;;;;;5070631;28;20040;-88
2023/07/24 09:07:50;;;;;;;11.68;5.88;;;31.20;96.70;;;;;;5069895;28;20058;-87
2023/07/24 09:10:26;;;;;;;12.57;7.03;;;31.20;96.70;;;;;;5085379;28;20116;-87
2023/07/24 09:12:55;;;;;;;13.82;6.10;;;31.30;96.70;;;;;;5063838;28;20053;-89
2023/07/24 09:15:23;;;;;;;19.55;7.20;;;31.50;96.70;;;;;;5062306;28;20036;-90
2023/07/24 09:17:53;;;;;;;17.48;6.60;;;31.60;96.70;;;;;;5070148;28;20067;-85
2023/07/24 09:20:21;;;;;;;11.00;5.13;;;31.60;96.70;;;;;;5065935;28;20037;-86
2023/07/24 09:22:53;;;;;;;13.98;5.75;;;31.60;96.70;;;;;;5068485;28;20041;-90
2023/07/24 09:25:43;;;;;;;16.10;5.55;;;31.50;96.70;;;;;;5074032;28;20097;-81
2023/07/24 09:28:11;;;;;;;10.68;5.57;;;31.50;96.70;;;;;;5059413;28;20064;-87
2023/07/24 09:30:41;;;;;;;15.38;5.32;;;31.60;96.70;;;;;;5043131;28;20083;-87
2023/07/24 09:33:09;;;;;;;14.43;6.22;;;31.60;96.70;;;;;;5074649;28;20048;-87
2023/07/24 09:35:37;;;;;;;9.80;4.97;;;31.70;96.70;;;;;;5079930;28;20920;-83
2023/07/24 09:38:07;;;;;;;8.98;5.57;;;31.70;96.70;;;;;;5053762;28;20144;-84
2023/07/24 09:40:40;;;;;;;9.80;5.63;;;31.80;96.70;;;;;;5067292;28;20086;-85
2023/07/24 09:43:18;;;;;;;9.70;5.47;;;31.90;96.70;;;;;;5030065;28;20052;-81
2023/07/24 09:46:07;;;;;;;9.73;5.40;;;31.90;96.70;;;;;;5065867;28;20138;-83
2023/07/24 09:48:36;;;;;;;10.77;5.53;;;31.90;96.70;;;;;;5084960;28;20137;-83
2023/07/24 09:51:15;;;;;;;12.63;5.72;;;32.10;96.70;;;;;;5065315;28;20048;-82
2023/07/24 09:53:48;;;;;;;9.90;5.60;;;32.10;96.70;;;;;;5068767;28;20501;-83
2023/07/24 09:56:18;;;;;;;9.27;5.82;;;32.20;96.70;;;;;;5080287;28;20075;-84
2023/07/24 09:58:55;;;;;;;14.20;5.55;;;32.30;96.70;;;;;;5070166;28;20058;-84
2023/07/24 10:01:25;;;;;;;9.23;5.63;;;32.50;96.70;;;;;;5063440;28;20566;-82
2023/07/24 10:03:54;;;;;;;9.75;4.70;;;32.70;96.70;;;;;;5080310;28;20119;-83
2023/07/24 10:06:24;;;;;;;9.68;5.10;;;32.70;96.70;;;;;;5053773;28;20140;-82
2023/07/24 10:08:53;;;;;;;9.25;5.15;;;32.90;96.70;;;;;;5083572;28;20094;-81
2023/07/24 10:11:23;;;;;;;16.90;6.28;;;32.90;96.70;;;;;;5074049;28;20592;-82
2023/07/24 10:13:53;;;;;;;13.13;5.40;;;33.00;96.70;;;;;;5065685;28;20048;-85
2023/07/24 10:16:22;;;;;;;14.52;6.03;;;33.10;96.70;;;;;;5072415;28;20129;-88
2023/07/24 10:18:50;;;;;;;12.73;5.18;;;33.40;96.70;;;;;;5051833;28;20478;-89
2023/07/24 10:21:25;;;;;;;16.52;4.70;;;33.50;96.70;;;;;;5071308;28;20362;-87
2023/07/24 10:23:59;;;;;;;15.18;5.38;;;33.70;96.70;;;;;;5089432;28;20126;-88
2023/07/24 10:26:28;;;;;;;10.82;5.22;;;33.60;96.70;;;;;;5077632;28;20052;-88
2023/07/24 10:28:57;;;;;;;12.07;5.35;;;33.60;96.70;;;;;;5087466;28;20044;-89
2023/07/24 10:31:27;;;;;;;11.15;5.10;;;33.40;96.70;;;;;;5065429;28;20105;-88
2023/07/24 10:34:03;;;;;;;10.05;4.82;;;33.50;96.70;;;;;;5085097;28;20044;-86
2023/07/24 10:36:34;;;;;;;9.07;4.88;;;33.80;96.70;;;;;;5079590;28;20049;-81
2023/07/24 10:39:12;;;;;;;14.20;5.03;;;33.90;96.70;;;;;;5055461;28;20047;-85
2023/07/24 10:41:41;;;;;;;12.40;5.10;;;34.00;96.70;;;;;;5088775;28;20051;-86
2023/07/24 10:44:10;;;;;;;14.50;6.20;;;34.00;96.70;;;;;;5070216;28;20068;-85
2023/07/24 10:46:41;;;;;;;13.00;5.45;;;34.20;96.70;;;;;;5089308;28;20067;-84
2023/07/24 10:49:10;;;;;;;13.45;4.75;;;34.30;96.70;;;;;;5089436;28;20052;-85
2023/07/24 10:51:39;;;;;;;17.67;5.38;;;34.20;96.70;;;;;;5089350;28;20379;-84
2023/07/24 10:54:07;;;;;;;15.27;4.78;;;34.30;96.70;;;;;;5059150;28;20052;-85
2023/07/24 10:56:37;;;;;;;17.02;6.10;;;34.50;96.70;;;;;;5088489;28;20453;-85
2023/07/24 10:59:05;;;;;;;15.10;5.40;;;34.40;96.70;;;;;;5088541;28;20035;-85
2023/07/24 11:01:35;;;;;;;15.75;5.43;;;34.20;96.70;;;;;;5071342;28;20101;-85
2023/07/24 11:04:04;;;;;;;14.00;4.97;;;34.20;96.70;;;;;;5086600;28;20051;-85
2023/07/24 11:06:32;;;;;;;19.77;5.40;;;34.40;96.70;;;;;;5083326;28;20064;-85
2023/07/24 11:09:00;;;;;;;18.35;6.32;;;34.50;96.70;;;;;;5089111;28;20040;-85
2023/07/24 11:11:29;;;;;;;13.15;5.22;;;34.40;96.70;;;;;;5078346;28;20048;-84
2023/07/24 11:13:58;;;;;;;15.20;4.95;;;34.30;96.70;;;;;;5089318;28;20044;-85
2023/07/24 11:16:26;;;;;;;14.05;5.32;;;34.10;96.70;;;;;;5072137;28;20047;-84
2023/07/24 11:18:56;;;;;;;15.48;5.18;;;34.00;96.70;;;;;;5088925;28;20040;-83
2023/07/24 11:21:24;;;;;;;19.42;6.25;;;33.90;96.70;;;;;;5069264;28;20071;-83
2023/07/24 11:23:54;;;;;;;15.23;5.07;;;33.80;96.70;;;;;;5088474;28;20043;-84
2023/07/24 11:26:23;;;;;;;13.95;5.25;;;33.90;96.70;;;;;;5053853;28;20078;-84
2023/07/24 11:28:53;;;;;;;14.52;5.40;;;34.00;96.70;;;;;;5070941;28;20033;-84
2023/07/24 11:31:21;;;;;;;11.55;5.03;;;34.10;96.70;;;;;;5071046;28;20060;-84
2023/07/24 11:33:51;;;;;;;18.75;4.95;;;34.20;96.70;;;;;;5073585;28;20052;-84
2023/07/24 11:36:22;;;;;;;16.52;5.47;;;34.20;96.70;;;;;;5076254;28;20051;-83
2023/07/24 11:38:51;;;;;;;13.25;5.72;;;34.20;96.70;;;;;;5069823;28;20040;-84
2023/07/24 11:41:20;;;;;;;22.40;6.28;;;34.20;96.70;;;;;;5083198;28;20123;-84
2023/07/24 11:43:49;;;;;;;17.58;5.65;;;34.40;96.70;;;;;;5082901;28;20615;-83
2023/07/24 11:46:25;;;;;;;16.48;6.13;;;34.50;96.70;;;;;;5052589;28;20137;-84
2023/07/24 11:48:56;;;;;;;18.17;5.25;;;34.60;96.70;;;;;;5087704;28;20337;-84
2023/07/24 11:51:27;;;;;;;12.70;5.43;;;34.90;96.70;;;;;;5087537;28;20051;-82
2023/07/24 11:54:07;;;;;;;14.65;5.90;;;35.10;96.70;;;;;;5078170;28;20048;-83
2023/07/24 11:56:36;;;;;;;15.13;4.95;;;35.30;96.70;;;;;;5074886;28;20447;-83
2023/07/24 11:59:11;;;;;;;17.15;5.07;;;35.40;96.70;;;;;;5069792;28;20036;-84
2023/07/24 12:01:40;;;;;;;20.67;5.43;;;35.50;96.70;;;;;;5071667;28;20071;-82
2023/07/24 12:04:08;;;;;;;15.02;6.03;;;35.60;96.70;;;;;;5085019;28;20047;-84
2023/07/24 12:06:38;;;;;;;12.73;5.15;;;35.50;96.70;;;;;;5073542;28;20071;-83
2023/07/24 12:09:06;;;;;;;14.13;6.00;;;35.20;96.70;;;;;;5085459;28;20935;-82
2023/07/24 12:11:41;;;;;;;18.13;6.07;;;35.10;96.70;;;;;;5084804;28;20075;-81
2023/07/24 12:14:14;;;;;;;14.35;5.40;;;34.90;96.70;;;;;;5066659;28;20048;-81
2023/07/24 12:16:42;;;;;;;19.38;5.97;;;34.70;96.70;;;;;;5085572;28;20371;-84
2023/07/24 12:19:10;;;;;;;14.55;6.18;;;34.70;96.70;;;;;;5084988;28;20048;-82
2023/07/24 12:21:40;;;;;;;18.23;6.45;;;34.60;96.70;;;;;;5067627;28;20413;-80
2023/07/24 12:24:08;;;;;;;15.32;5.90;;;34.40;96.70;;;;;;5084237;28;20628;-82
2023/07/24 12:26:36;;;;;;;19.45;6.45;;;34.20;96.70;;;;;;5076227;28;20053;-81
2023/07/24 12:29:04;;;;;;;15.68;6.05;;;34.30;96.70;;;;;;5069916;28;20143;-82
2023/07/24 12:31:32;;;;;;;18.38;6.05;;;34.50;96.70;;;;;;5085777;28;20374;-82
2023/07/24 12:34:01;;;;;;;19.10;6.32;;;34.80;96.70;;;;;;5086422;28;20048;-83
2023/07/24 12:36:29;;;;;;;18.77;6.22;;;35.00;96.70;;;;;;5077934;28;20121;-82
2023/07/24 12:38:59;;;;;;;17.50;6.57;;;35.00;96.70;;;;;;5084239;28;20066;-82
2023/07/24 12:41:27;;;;;;;17.85;6.10;;;35.10;96.70;;;;;;5056230;28;20052;-81
2023/07/24 12:43:57;;;;;;;18.35;5.70;;;35.40;96.70;;;;;;5067046;28;20413;-80
2023/07/24 12:46:28;;;;;;;17.70;6.32;;;35.50;96.70;;;;;;5068468;28;20060;-80